createdAt,value
2023-05-19T00:01:00.318Z,9.38
2023-05-19T00:03:27.169Z,8.25
2023-05-19T00:05:54.102Z,11.65
2023-05-19T00:08:24.641Z,12.70
2023-05-19T00:10:59.188Z,11.88
2023-05-19T00:13:26.044Z,12.98
2023-05-19T00:15:53.075Z,9.45
2023-05-19T00:18:20.646Z,9.30
2023-05-19T00:20:47.126Z,7.57
2023-05-19T00:23:13.646Z,8.68
2023-05-19T00:25:40.415Z,14.90
2023-05-19T00:28:06.913Z,10.15
2023-05-19T00:30:33.644Z,8.40
2023-05-19T00:33:02.992Z,8.90
2023-05-19T00:35:29.600Z,13.05
2023-05-19T00:37:57.213Z,8.50
2023-05-19T00:40:24.560Z,13.38
2023-05-19T00:42:51.110Z,10.75
2023-05-19T00:45:17.740Z,13.35
2023-05-19T00:47:44.384Z,11.48
2023-05-19T00:50:11.037Z,14.20
2023-05-19T00:52:37.758Z,10.27
2023-05-19T00:55:05.180Z,9.15
2023-05-19T00:57:31.685Z,9.32
2023-05-19T01:00:01.476Z,10.63
2023-05-19T01:02:29.829Z,14.05
2023-05-19T01:04:59.785Z,13.60
2023-05-19T01:07:27.304Z,12.23
2023-05-19T01:09:54.129Z,10.75
2023-05-19T01:12:20.714Z,12.57
2023-05-19T01:14:47.721Z,7.53
2023-05-19T01:17:42.366Z,9.73
2023-05-19T01:20:33.908Z,12.55
2023-05-19T01:23:18.590Z,7.90
2023-05-19T01:26:03.455Z,8.40
2023-05-19T01:28:39.055Z,9.10
2023-05-19T01:31:07.667Z,10.63
2023-05-19T01:33:35.894Z,13.13
2023-05-19T01:36:04.065Z,12.75
2023-05-19T01:38:33.532Z,10.45
2023-05-19T01:41:01.381Z,8.10
2023-05-19T01:43:29.244Z,9.98
2023-05-19T01:45:58.781Z,10.45
2023-05-19T01:48:27.184Z,18.45
2023-05-19T01:50:53.719Z,6.32
2023-05-19T01:53:20.328Z,11.63
2023-05-19T01:55:50.788Z,12.90
2023-05-19T01:58:43.908Z,9.25
2023-05-19T02:01:32.161Z,10.10
2023-05-19T02:04:09.346Z,10.73
2023-05-19T02:07:25.297Z,11.50
2023-05-19T02:10:10.781Z,10.88
2023-05-19T02:12:40.946Z,8.15
2023-05-19T02:15:12.366Z,8.10
2023-05-19T02:17:41.617Z,11.02
2023-05-19T02:20:12.049Z,9.23
2023-05-19T02:22:38.639Z,13.00
2023-05-19T02:25:05.595Z,10.75
2023-05-19T02:27:32.136Z,8.55
2023-05-19T02:29:58.692Z,12.30
2023-05-19T02:32:25.337Z,7.80
2023-05-19T02:34:53.329Z,10.88
2023-05-19T02:37:23.755Z,14.98
2023-05-19T02:39:50.386Z,15.73
2023-05-19T02:42:19.777Z,10.63
2023-05-19T02:44:46.584Z,15.02
2023-05-19T02:47:13.553Z,13.43
2023-05-19T02:49:40.454Z,7.70
2023-05-19T02:52:10.101Z,7.32
2023-05-19T02:54:36.603Z,13.93
2023-05-19T02:57:03.382Z,10.82
2023-05-19T02:59:29.904Z,7.60
2023-05-19T03:01:59.934Z,11.23
2023-05-19T03:04:26.593Z,7.72
2023-05-19T03:06:54.170Z,8.43
2023-05-19T03:09:20.837Z,12.20
2023-05-19T03:11:47.458Z,13.23
2023-05-19T03:14:14.018Z,9.82
2023-05-19T03:16:42.160Z,11.70
2023-05-19T03:19:09.534Z,9.75
2023-05-19T03:21:36.724Z,12.70
2023-05-19T03:24:03.435Z,8.80
2023-05-19T03:26:30.038Z,12.25
2023-05-19T03:28:56.561Z,8.63
2023-05-19T03:31:23.069Z,7.60
2023-05-19T03:33:49.611Z,8.45
2023-05-19T03:36:16.091Z,7.70
2023-05-19T03:38:42.625Z,10.88
2023-05-19T03:41:09.130Z,13.48
2023-05-19T03:43:35.699Z,11.65
2023-05-19T03:46:02.329Z,10.98
2023-05-19T03:48:28.998Z,11.65
2023-05-19T03:50:55.656Z,9.82
2023-05-19T03:53:22.274Z,13.10
2023-05-19T03:55:52.141Z,11.82
2023-05-19T03:58:18.892Z,10.00
2023-05-19T04:00:45.376Z,13.55
2023-05-19T04:03:12.040Z,11.88
2023-05-19T04:05:38.739Z,10.32
2023-05-19T04:08:05.609Z,10.35
2023-05-19T04:10:32.407Z,10.02
2023-05-19T04:12:59.160Z,14.77
2023-05-19T04:15:25.989Z,17.15
2023-05-19T04:17:52.607Z,10.85
2023-05-19T04:20:19.211Z,14.88
2023-05-19T04:22:45.689Z,12.40
2023-05-19T04:25:12.296Z,9.35
2023-05-19T04:27:42.366Z,12.20
2023-05-19T04:30:09.409Z,10.40
2023-05-19T04:32:37.460Z,10.80
2023-05-19T04:35:04.796Z,13.50
2023-05-19T04:37:31.545Z,10.73
2023-05-19T04:39:58.180Z,8.80
2023-05-19T04:42:28.969Z,12.25
2023-05-19T04:44:55.554Z,11.15
2023-05-19T04:47:22.161Z,11.43
2023-05-19T04:49:48.793Z,11.05
2023-05-19T04:52:16.039Z,12.32
2023-05-19T04:54:42.634Z,13.25
2023-05-19T04:57:10.467Z,16.73
2023-05-19T04:59:37.034Z,13.30
2023-05-19T05:02:04.361Z,9.25
2023-05-19T05:04:32.088Z,10.20
2023-05-19T05:06:58.600Z,12.95
2023-05-19T05:09:25.300Z,11.75
2023-05-19T05:11:52.038Z,18.80
2023-05-19T05:14:18.944Z,17.88
2023-05-19T05:16:46.466Z,14.30
2023-05-19T05:19:13.419Z,15.15
2023-05-19T05:21:41.489Z,20.67
2023-05-19T05:24:09.270Z,21.30
2023-05-19T05:26:36.147Z,24.92
2023-05-19T05:29:03.815Z,23.73
2023-05-19T05:31:30.416Z,24.05
2023-05-19T05:33:57.143Z,26.85
2023-05-19T05:36:23.761Z,20.10
2023-05-19T05:38:53.465Z,15.18
2023-05-19T05:41:21.960Z,20.63
2023-05-19T05:43:48.532Z,21.80
2023-05-19T05:46:15.113Z,23.20
2023-05-19T05:48:42.707Z,22.10
2023-05-19T05:51:09.722Z,19.83
2023-05-19T05:53:41.908Z,19.88
2023-05-19T05:56:09.652Z,15.23
2023-05-19T05:58:37.668Z,20.13
2023-05-19T06:01:04.856Z,20.05
2023-05-19T06:03:31.967Z,12.07
2023-05-19T06:05:58.606Z,16.30
2023-05-19T06:08:25.215Z,16.60
2023-05-19T06:10:51.725Z,14.60
2023-05-19T06:13:22.537Z,16.40
2023-05-19T06:15:49.119Z,13.60
2023-05-19T06:18:15.780Z,15.30
2023-05-19T06:20:42.292Z,13.45
2023-05-19T06:23:08.939Z,15.52
2023-05-19T06:25:35.693Z,14.45
2023-05-19T06:28:03.565Z,14.55
2023-05-19T06:30:30.216Z,13.63
2023-05-19T06:32:56.850Z,16.25
2023-05-19T06:35:23.447Z,17.30
2023-05-19T06:37:50.049Z,12.50
2023-05-19T06:40:16.642Z,16.73
2023-05-19T06:42:43.175Z,12.82
2023-05-19T06:45:10.260Z,17.85
2023-05-19T06:47:36.864Z,18.80
2023-05-19T06:50:03.484Z,14.55
2023-05-19T06:52:30.008Z,12.82
2023-05-19T06:54:56.754Z,15.45
2023-05-19T06:57:23.768Z,16.70
2023-05-19T06:59:50.457Z,16.08
2023-05-19T07:02:17.180Z,15.60
2023-05-19T07:04:47.366Z,10.88
2023-05-19T07:07:13.926Z,14.23
2023-05-19T07:09:40.689Z,16.55
2023-05-19T07:12:07.522Z,13.98
2023-05-19T07:14:34.076Z,14.23
2023-05-19T07:17:00.699Z,11.73
2023-05-19T07:19:27.300Z,13.88
2023-05-19T07:21:54.947Z,12.60
2023-05-19T07:24:22.213Z,12.88
2023-05-19T07:26:48.969Z,13.43
2023-05-19T07:29:15.637Z,12.68
2023-05-19T07:31:42.227Z,12.07
2023-05-19T07:34:09.024Z,19.77
2023-05-19T07:36:35.987Z,12.85
2023-05-19T07:39:02.619Z,9.48
2023-05-19T07:41:29.199Z,10.55
2023-05-19T07:43:55.961Z,11.88
2023-05-19T07:46:22.622Z,15.80
2023-05-19T07:48:49.461Z,13.32
2023-05-19T07:51:16.194Z,15.75
2023-05-19T07:53:42.773Z,16.75
2023-05-19T07:56:11.850Z,12.88
2023-05-19T07:58:38.514Z,11.48
2023-05-19T08:01:05.227Z,13.07
2023-05-19T08:03:32.058Z,14.85
2023-05-19T08:05:58.766Z,15.00
2023-05-19T08:08:25.584Z,13.70
2023-05-19T08:10:52.210Z,7.88
2023-05-19T08:13:18.713Z,10.77
2023-05-19T08:15:45.362Z,9.98
2023-05-19T08:18:11.932Z,13.25
2023-05-19T08:20:38.621Z,14.88
2023-05-19T08:23:05.376Z,8.85
2023-05-19T08:25:32.156Z,15.25
2023-05-19T08:27:58.649Z,9.48
2023-05-19T08:30:25.245Z,11.25
2023-05-19T08:32:51.892Z,12.10
2023-05-19T08:35:21.520Z,9.20
2023-05-19T08:37:48.020Z,12.00
2023-05-19T08:40:17.502Z,14.50
2023-05-19T08:42:45.583Z,7.68
2023-05-19T08:45:15.013Z,8.30
2023-05-19T08:47:42.483Z,7.47
2023-05-19T08:50:11.817Z,9.68
2023-05-19T08:52:50.264Z,9.07
2023-05-19T08:55:53.348Z,8.30
2023-05-19T08:58:23.219Z,11.13
2023-05-19T09:00:51.137Z,5.30
2023-05-19T09:08:16.602Z,7.68
2023-05-19T09:10:43.281Z,9.50
2023-05-19T09:13:09.854Z,10.85
2023-05-19T09:15:39.137Z,8.02
2023-05-19T09:18:08.383Z,6.38
2023-05-19T09:20:45.089Z,9.75
2023-05-19T09:23:16.363Z,8.90
2023-05-19T09:25:50.393Z,5.72
2023-05-19T09:28:29.402Z,9.23
2023-05-19T09:31:06.242Z,10.98
2023-05-19T09:33:34.909Z,10.55
2023-05-19T09:36:01.942Z,6.40
2023-05-19T09:38:31.517Z,7.03
2023-05-19T09:40:59.774Z,8.27
2023-05-19T09:43:31.812Z,6.90
2023-05-19T09:46:13.612Z,5.88
2023-05-19T09:48:41.080Z,6.60
2023-05-19T09:51:10.715Z,8.18
2023-05-19T09:53:38.994Z,9.32
2023-05-19T09:56:08.624Z,8.40
2023-05-19T09:58:36.371Z,6.18
2023-05-19T10:01:07.559Z,6.93
2023-05-19T10:03:34.616Z,9.07
2023-05-19T10:06:02.063Z,6.68
2023-05-19T10:08:32.261Z,6.15
2023-05-19T10:11:00.081Z,8.15
2023-05-19T10:13:28.200Z,6.05
2023-05-19T10:15:59.239Z,7.97
2023-05-19T10:20:54.959Z,9.10
2023-05-19T10:23:22.382Z,5.90
2023-05-19T10:25:52.001Z,5.90
2023-05-19T10:28:25.887Z,5.53
2023-05-19T10:30:56.877Z,6.88
2023-05-19T10:33:47.375Z,6.93
2023-05-19T10:36:35.390Z,7.50
2023-05-19T10:39:07.794Z,9.80
2023-05-19T10:41:47.048Z,3.13
2023-05-19T10:44:30.652Z,5.60
2023-05-19T10:46:57.478Z,4.20
2023-05-19T10:49:24.292Z,5.03
2023-05-19T10:51:52.534Z,4.68
2023-05-19T10:54:40.710Z,7.82
2023-05-19T10:57:08.340Z,5.00
2023-05-19T10:59:40.045Z,6.93
2023-05-19T11:02:10.122Z,8.43
2023-05-19T11:04:54.117Z,5.03
2023-05-19T11:07:22.444Z,5.25
2023-05-19T11:09:53.478Z,9.80
2023-05-19T11:12:25.050Z,3.63
2023-05-19T11:17:23.769Z,9.02
2023-05-19T11:19:58.663Z,5.63
2023-05-19T11:22:26.938Z,8.48
2023-05-19T11:24:59.779Z,5.03
2023-05-19T11:27:31.395Z,5.60
2023-05-19T11:30:00.482Z,5.85
2023-05-19T11:32:29.288Z,5.80
2023-05-19T11:34:57.631Z,6.63
2023-05-19T11:37:24.353Z,6.80
2023-05-19T11:39:52.276Z,4.15
2023-05-19T11:42:19.176Z,5.45
2023-05-19T11:44:46.410Z,7.07
2023-05-19T11:47:14.326Z,4.82
2023-05-19T11:49:45.908Z,4.07
2023-05-19T11:52:12.930Z,6.40
2023-05-19T11:54:41.827Z,4.78
2023-05-19T11:57:10.633Z,4.88
2023-05-19T11:59:39.235Z,4.68
2023-05-19T12:02:19.201Z,4.28
2023-05-19T12:04:46.967Z,7.70
2023-05-19T12:07:17.653Z,5.63
2023-05-19T12:09:46.020Z,4.13
2023-05-19T12:12:22.538Z,4.50
2023-05-19T12:14:51.120Z,8.50
2023-05-19T12:17:25.531Z,4.28
2023-05-19T12:19:52.460Z,5.05
2023-05-19T12:22:19.277Z,4.35
2023-05-19T12:24:47.198Z,4.80
2023-05-19T12:27:19.596Z,6.25
2023-05-19T12:29:57.308Z,8.35
2023-05-19T12:32:25.384Z,4.15
2023-05-19T12:34:53.005Z,4.90
2023-05-19T12:37:19.793Z,9.10
2023-05-19T12:39:48.320Z,4.07
2023-05-19T12:42:16.191Z,4.72
2023-05-19T12:44:46.509Z,4.47
2023-05-19T12:47:14.859Z,4.97
2023-05-19T12:50:01.534Z,5.90
2023-05-19T12:52:29.504Z,7.05
2023-05-19T12:55:05.268Z,6.82
2023-05-19T12:57:38.666Z,5.10
2023-05-19T13:00:10.658Z,9.15
2023-05-19T13:03:08.519Z,5.68
2023-05-19T13:05:39.620Z,5.20
2023-05-19T13:08:08.924Z,5.63
2023-05-19T13:10:36.763Z,4.60
2023-05-19T13:13:04.235Z,3.65
2023-05-19T13:15:36.465Z,4.90
2023-05-19T13:18:06.189Z,4.72
2023-05-19T13:20:33.532Z,6.88
2023-05-19T13:23:00.409Z,6.68
2023-05-19T13:25:27.505Z,3.67
2023-05-19T13:27:54.650Z,2.63
2023-05-19T13:30:21.961Z,3.95
2023-05-19T13:32:48.622Z,4.13
2023-05-19T13:35:18.403Z,14.30
2023-05-19T13:37:45.062Z,3.40
2023-05-19T13:40:12.177Z,4.13
2023-05-19T13:42:38.893Z,5.50
2023-05-19T13:45:06.061Z,3.20
2023-05-19T13:47:32.718Z,6.28
2023-05-19T13:49:59.362Z,7.18
2023-05-19T13:52:28.090Z,4.28
2023-05-19T13:54:56.626Z,3.35
2023-05-19T13:57:23.784Z,3.38
2023-05-19T14:00:10.817Z,2.88
2023-05-19T14:02:38.201Z,5.25
2023-05-19T14:05:05.890Z,3.15
2023-05-19T14:07:34.660Z,6.80
2023-05-19T14:10:02.584Z,3.40
2023-05-19T14:12:37.983Z,3.30
2023-05-19T14:15:14.202Z,3.88
2023-05-19T14:17:40.821Z,4.93
2023-05-19T14:20:08.510Z,6.50
2023-05-19T14:22:35.183Z,3.05
2023-05-19T14:25:02.503Z,2.95
2023-05-19T14:27:29.006Z,4.35
2023-05-19T14:29:55.642Z,3.65
2023-05-19T14:32:22.359Z,2.50
2023-05-19T14:34:52.823Z,5.57
2023-05-19T14:37:20.817Z,6.85
2023-05-19T14:39:47.375Z,3.83
2023-05-19T14:42:16.861Z,3.72
2023-05-19T14:44:43.422Z,3.42
2023-05-19T14:47:11.195Z,3.85
2023-05-19T14:49:39.233Z,3.75
2023-05-19T14:52:06.061Z,4.05
2023-05-19T14:54:32.656Z,4.78
2023-05-19T14:56:59.228Z,9.93
2023-05-19T14:59:26.215Z,6.07
2023-05-19T15:01:52.729Z,7.13
2023-05-19T15:04:19.302Z,6.82
2023-05-19T15:06:48.235Z,5.05
2023-05-19T15:09:18.989Z,6.68
2023-05-19T15:11:45.663Z,4.82
2023-05-19T15:14:12.201Z,3.28
2023-05-19T15:16:38.728Z,2.30
2023-05-19T15:19:05.365Z,5.72
2023-05-19T15:21:31.932Z,3.35
2023-05-19T15:23:58.444Z,3.47
2023-05-19T15:26:25.183Z,2.72
2023-05-19T15:28:52.726Z,3.47
2023-05-19T15:31:19.319Z,6.35
2023-05-19T15:33:46.082Z,5.00
2023-05-19T15:36:16.393Z,4.57
2023-05-19T15:38:42.928Z,5.10
2023-05-19T15:41:10.200Z,3.88
2023-05-19T15:43:36.951Z,4.47
2023-05-19T15:46:04.995Z,3.92
2023-05-19T15:48:32.349Z,5.28
2023-05-19T15:50:59.794Z,4.53
2023-05-19T15:53:26.459Z,3.90
2023-05-19T15:55:52.946Z,3.65
2023-05-19T15:58:19.543Z,4.43
2023-05-19T16:00:48.196Z,3.47
2023-05-19T16:03:14.882Z,2.85
2023-05-19T16:05:41.467Z,5.88
2023-05-19T16:08:08.891Z,6.70
2023-05-19T16:10:38.483Z,4.63
2023-05-19T16:13:05.038Z,4.45
2023-05-19T16:15:31.541Z,3.70
2023-05-19T16:17:58.102Z,4.28
2023-05-19T16:20:27.854Z,5.53
2023-05-19T16:22:55.437Z,2.15
2023-05-19T16:25:22.344Z,4.25
2023-05-19T16:27:48.967Z,3.80
2023-05-19T16:30:16.486Z,3.80
2023-05-19T16:32:43.179Z,4.60
2023-05-19T16:35:10.033Z,3.35
2023-05-19T16:37:36.574Z,3.83
2023-05-19T16:40:03.506Z,2.15
2023-05-19T16:42:30.081Z,3.45
2023-05-19T16:44:56.572Z,2.50
2023-05-19T16:47:23.149Z,4.47
2023-05-19T16:49:49.689Z,4.80
2023-05-19T16:52:16.215Z,2.53
2023-05-19T16:54:42.739Z,2.80
2023-05-19T16:57:09.811Z,3.50
2023-05-19T16:59:36.345Z,4.75
2023-05-19T17:02:03.409Z,2.58
2023-05-19T17:04:30.891Z,5.00
2023-05-19T17:06:57.627Z,3.85
2023-05-19T17:09:26.205Z,3.75
2023-05-19T17:11:53.557Z,4.72
2023-05-19T17:14:20.976Z,3.70
2023-05-19T17:16:47.734Z,2.45
2023-05-19T17:19:16.175Z,3.45
2023-05-19T17:21:42.734Z,2.90
2023-05-19T17:24:09.338Z,6.82
2023-05-19T17:26:35.958Z,3.63
2023-05-19T17:29:02.509Z,6.82
2023-05-19T17:31:29.107Z,3.60
2023-05-19T17:33:58.096Z,7.20
2023-05-19T17:36:24.565Z,4.15
2023-05-19T17:38:51.200Z,4.20
2023-05-19T17:41:17.912Z,4.35
2023-05-19T17:43:44.438Z,6.07
2023-05-19T17:46:12.055Z,6.32
2023-05-19T17:48:39.727Z,6.20
2023-05-19T17:51:09.153Z,5.97
2023-05-19T17:53:36.554Z,3.67
2023-05-19T17:56:06.543Z,5.00
2023-05-19T17:58:33.446Z,4.80
2023-05-19T18:01:00.372Z,7.53
2023-05-19T18:03:27.188Z,3.53
2023-05-19T18:05:58.633Z,3.88
2023-05-19T18:08:25.952Z,3.70
2023-05-19T18:10:54.109Z,5.22
2023-05-19T18:13:23.551Z,5.32
2023-05-19T18:15:50.555Z,4.80
2023-05-19T18:18:17.136Z,3.67
2023-05-19T18:20:47.560Z,2.95
2023-05-19T18:23:14.097Z,5.00
2023-05-19T18:25:40.643Z,4.60
2023-05-19T18:28:07.983Z,4.70
2023-05-19T18:30:34.905Z,3.70
2023-05-19T18:33:03.673Z,4.03
2023-05-19T18:35:30.479Z,5.28
2023-05-19T18:37:57.368Z,3.15
2023-05-19T18:40:24.519Z,3.13
2023-05-19T18:42:51.010Z,8.45
2023-05-19T18:45:17.491Z,3.38
2023-05-19T18:47:46.815Z,2.70
2023-05-19T18:50:14.279Z,3.55
2023-05-19T18:52:40.909Z,4.63
2023-05-19T18:55:07.770Z,5.25
2023-05-19T18:57:34.319Z,4.32
2023-05-19T19:00:00.837Z,2.92
2023-05-19T19:02:27.397Z,3.72
2023-05-19T19:04:53.992Z,4.47
2023-05-19T19:07:20.642Z,5.22
2023-05-19T19:09:47.144Z,4.25
2023-05-19T19:12:13.737Z,7.93
2023-05-19T19:14:40.304Z,3.35
2023-05-19T19:17:06.863Z,8.65
2023-05-19T19:19:33.461Z,5.60
2023-05-19T19:22:00.136Z,4.93
2023-05-19T19:24:28.412Z,3.75
2023-05-19T19:26:54.931Z,5.15
2023-05-19T19:29:21.923Z,5.65
2023-05-19T19:31:48.740Z,6.82
2023-05-19T19:34:15.638Z,4.50
2023-05-19T19:36:42.168Z,8.55
2023-05-19T19:39:08.704Z,6.47
2023-05-19T19:41:35.301Z,9.98
2023-05-19T19:44:01.842Z,12.52
2023-05-19T19:46:31.179Z,9.43
2023-05-19T19:49:00.613Z,15.90
2023-05-19T19:51:27.832Z,8.27
2023-05-19T19:53:54.635Z,8.13
2023-05-19T19:56:23.593Z,8.32
2023-05-19T19:58:51.039Z,6.80
2023-05-19T20:01:20.285Z,9.40
2023-05-19T20:03:47.337Z,5.25
2023-05-19T20:06:14.198Z,6.35
2023-05-19T20:08:40.773Z,6.57
2023-05-19T20:11:07.307Z,5.82
2023-05-19T20:13:34.011Z,9.95
2023-05-19T20:16:03.365Z,4.68
2023-05-19T20:18:30.172Z,7.05
2023-05-19T20:20:56.995Z,6.38
2023-05-19T20:23:23.557Z,8.65
2023-05-19T20:26:06.701Z,6.88
2023-05-19T20:28:37.291Z,4.32
2023-05-19T20:31:03.909Z,6.00
2023-05-19T20:33:30.469Z,4.63
2023-05-19T20:35:57.040Z,7.32
2023-05-19T20:38:23.547Z,8.25
2023-05-19T20:40:50.149Z,8.85
2023-05-19T20:43:16.717Z,5.40
2023-05-19T20:45:44.257Z,7.68
2023-05-19T20:48:11.314Z,5.60
2023-05-19T20:50:39.366Z,5.90
2023-05-19T20:53:07.301Z,4.85
2023-05-19T20:55:36.264Z,4.97
2023-05-19T20:58:06.475Z,8.57
2023-05-19T21:00:33.581Z,6.18
2023-05-19T21:03:00.748Z,5.97
2023-05-19T21:05:27.338Z,6.30
2023-05-19T21:07:53.984Z,7.13
2023-05-19T21:10:23.584Z,6.93
2023-05-19T21:13:00.843Z,4.68
2023-05-19T21:15:27.460Z,4.45
2023-05-19T21:17:55.092Z,5.43
2023-05-19T21:20:21.775Z,6.32
2023-05-19T21:22:48.300Z,6.50
2023-05-19T21:25:17.004Z,5.88
2023-05-19T21:27:48.679Z,6.35
2023-05-19T21:30:24.456Z,6.05
2023-05-19T21:32:51.347Z,5.05
2023-05-19T21:35:17.933Z,5.40
2023-05-19T21:37:44.494Z,5.22
2023-05-19T21:40:11.664Z,6.72
2023-05-19T21:42:38.217Z,8.90
2023-05-19T21:45:05.225Z,5.80
2023-05-19T21:47:33.723Z,6.03
2023-05-19T21:50:03.120Z,7.00
2023-05-19T21:52:30.271Z,5.97
2023-05-19T21:55:00.035Z,11.20
2023-05-19T21:57:26.654Z,4.75
2023-05-19T21:59:53.193Z,10.45
2023-05-19T22:02:23.143Z,5.68
2023-05-19T22:04:55.771Z,5.78
2023-05-19T22:07:26.783Z,6.63
2023-05-19T22:09:53.695Z,6.30
2023-05-19T22:12:20.326Z,9.27
2023-05-19T22:14:46.805Z,10.27
2023-05-19T22:17:13.326Z,7.78
2023-05-19T22:19:39.810Z,7.47
2023-05-19T22:22:13.777Z,4.28
2023-05-19T22:24:41.223Z,7.50
2023-05-19T22:27:08.545Z,7.07
2023-05-19T22:29:38.665Z,6.20
2023-05-19T22:32:12.067Z,6.35
2023-05-19T22:34:41.955Z,7.22
2023-05-19T22:37:08.531Z,7.32
2023-05-19T22:39:35.193Z,8.70
2023-05-19T22:42:02.522Z,6.57
2023-05-19T22:44:29.052Z,7.03
2023-05-19T22:47:00.534Z,6.03
2023-05-19T22:49:29.837Z,6.80
2023-05-19T22:51:56.336Z,4.88
2023-05-19T22:54:25.375Z,7.85
2023-05-19T22:56:51.870Z,6.82
2023-05-19T22:59:18.504Z,5.32
2023-05-19T23:01:51.221Z,10.23
2023-05-19T23:04:17.921Z,7.80
2023-05-19T23:06:49.627Z,7.63
2023-05-19T23:09:17.866Z,5.95
2023-05-19T23:11:45.178Z,7.95
2023-05-19T23:14:11.725Z,6.03
2023-05-19T23:16:41.310Z,7.70
2023-05-19T23:19:11.202Z,10.05
2023-05-19T23:21:37.760Z,7.78
2023-05-19T23:24:05.665Z,10.23
2023-05-19T23:26:37.748Z,8.32
2023-05-19T23:29:11.251Z,8.52
2023-05-19T23:31:42.141Z,8.88
2023-05-19T23:34:12.066Z,8.10
2023-05-19T23:36:38.571Z,7.80
2023-05-19T23:39:05.087Z,7.13
2023-05-19T23:41:31.743Z,6.45
2023-05-19T23:43:58.382Z,6.10
2023-05-19T23:46:27.600Z,5.47
2023-05-19T23:48:57.490Z,8.15
2023-05-19T23:51:24.152Z,7.82
2023-05-19T23:53:50.873Z,7.93
2023-05-19T23:56:17.402Z,9.48
2023-05-19T23:58:46.561Z,5.95
